Mercer County Airport
KBLF : now visible

Airfield :











YOU CAN JOIN US ON...

 
LOGIN :

Register | Disclaimer

   EN    FR    IT 

 









Legend :    VFR   Marginal VFR   IFR   Intensive IFR   Very Intensive IFR
Visi :
Ceiling :
>= 8 km
>= 3000ft
5 to 8 km
1000 to 3000 ft
1500m to 5 km
500 to 1000 ft
800 to 1500m
200 to 500 ft
< 800m
< 200 ft
Symbols :   Thunderstorms  Fog  Heavy snow  Heavy precipitations  Wind > 20 kt






- Airport Elevation : 2857 ft
- IATA code : BLF


KBLF - Mercer County

CURRENT METAR :
  • 280752Z AUTO 22005KT 10SM CLR 14/12 A3015 RMK AO2 SLP187 T01440122

EXPIRED METARs :
  • 280652Z AUTO 23005KT 10SM SCT060 15/12 A3017 RMK AO2 SLP192 T01500122
  • 280552Z AUTO 24004KT 10SM FEW035 FEW050 14/12 A3017 RMK AO2 SLP194 T01390122 10167 20139 55007

TAF KBLF
Valid from the 28 at 06:00 until the 29 at 06:00 UTC


280540Z 2806/2906 25004KT P6SM SCT025 BKN035
FM280800 VRB04KT P6SM SCT010 BKN020
TEMPO 2810/2814 4SM BR OVC004
FM281400 14005KT P6SM OVC023
FM282100 15006KT 4SM -RA BR OVC004
FM290300 16006KT 1 1/2SM RA BR OVC004
KZID FIR / North America



MET'MAP, your aeronautical weather chart ! - Copyright ORBIFLY December 2007 - Disclaimer

ORBIFLY MET'MAP TEAM :

Programming & Development : Alexandra Zaïnal
Concept & original design : Baudouin d'Aumeries
Assistance for programming : Marc-Olivier Méhu
Technical & hardware support : Manuel Goepfert

Contact : metmap@orbifly.com




SOURCES & CREDITS :

   NOAA       Earth
Advisory